sensor_id;sensor_type;location;lat;lon;timestamp;P1;durP1;ratioP1;P2;durP2;ratioP2
23282;SDS011;11810;51.178;3.878;2023-03-23T00:01:08;3.80;;;2.30;;
23282;SDS011;11810;51.178;3.878;2023-03-23T00:03:39;5.43;;;3.25;;
23282;SDS011;11810;51.178;3.878;2023-03-23T00:06:06;6.80;;;2.63;;
23282;SDS011;11810;51.178;3.878;2023-03-23T00:08:33;3.92;;;2.85;;
23282;SDS011;11810;51.178;3.878;2023-03-23T00:11:15;7.10;;;3.03;;
23282;SDS011;11810;51.178;3.878;2023-03-23T00:13:44;5.60;;;2.33;;
23282;SDS011;11810;51.178;3.878;2023-03-23T00:16:13;3.80;;;2.42;;
23282;SDS011;11810;51.178;3.878;2023-03-23T00:18:48;6.30;;;2.50;;
23282;SDS011;11810;51.178;3.878;2023-03-23T00:21:19;4.05;;;2.40;;
23282;SDS011;11810;51.178;3.878;2023-03-23T00:23:50;3.67;;;2.50;;
23282;SDS011;11810;51.178;3.878;2023-03-23T00:26:17;5.55;;;3.47;;
23282;SDS011;11810;51.178;3.878;2023-03-23T00:28:43;4.18;;;3.20;;
23282;SDS011;11810;51.178;3.878;2023-03-23T00:31:11;6.13;;;2.85;;
23282;SDS011;11810;51.178;3.878;2023-03-23T00:33:39;4.05;;;2.75;;
23282;SDS011;11810;51.178;3.878;2023-03-23T00:36:09;4.85;;;2.88;;
23282;SDS011;11810;51.178;3.878;2023-03-23T00:38:37;3.03;;;2.72;;
23282;SDS011;11810;51.178;3.878;2023-03-23T00:41:04;5.35;;;2.85;;
23282;SDS011;11810;51.178;3.878;2023-03-23T00:43:31;6.05;;;3.28;;
23282;SDS011;11810;51.178;3.878;2023-03-23T00:46:00;6.82;;;3.38;;
23282;SDS011;11810;51.178;3.878;2023-03-23T00:48:28;3.72;;;3.15;;
23282;SDS011;11810;51.178;3.878;2023-03-23T00:50:54;4.20;;;2.90;;
23282;SDS011;11810;51.178;3.878;2023-03-23T00:53:21;5.32;;;3.15;;
23282;SDS011;11810;51.178;3.878;2023-03-23T00:55:48;9.35;;;3.78;;
23282;SDS011;11810;51.178;3.878;2023-03-23T00:58:14;6.03;;;3.70;;
23282;SDS011;11810;51.178;3.878;2023-03-23T01:00:41;5.93;;;3.20;;
23282;SDS011;11810;51.178;3.878;2023-03-23T01:03:08;3.85;;;2.78;;
23282;SDS011;11810;51.178;3.878;2023-03-23T01:05:43;7.32;;;3.17;;
23282;SDS011;11810;51.178;3.878;2023-03-23T01:08:12;6.32;;;3.55;;
23282;SDS011;11810;51.178;3.878;2023-03-23T01:10:39;5.30;;;3.13;;
23282;SDS011;11810;51.178;3.878;2023-03-23T01:13:06;4.32;;;3.15;;
23282;SDS011;11810;51.178;3.878;2023-03-23T01:15:32;3.83;;;2.83;;
23282;SDS011;11810;51.178;3.878;2023-03-23T01:17:58;7.93;;;3.30;;
23282;SDS011;11810;51.178;3.878;2023-03-23T01:20:25;5.60;;;2.78;;
23282;SDS011;11810;51.178;3.878;2023-03-23T01:22:57;3.97;;;2.63;;
23282;SDS011;11810;51.178;3.878;2023-03-23T01:25:26;4.90;;;3.20;;
23282;SDS011;11810;51.178;3.878;2023-03-23T01:27:56;4.22;;;2.50;;
23282;SDS011;11810;51.178;3.878;2023-03-23T01:30:23;4.40;;;3.20;;
23282;SDS011;11810;51.178;3.878;2023-03-23T01:32:50;4.45;;;2.85;;
23282;SDS011;11810;51.178;3.878;2023-03-23T01:35:16;2.70;;;2.50;;
23282;SDS011;11810;51.178;3.878;2023-03-23T01:37:43;4.65;;;2.33;;
23282;SDS011;11810;51.178;3.878;2023-03-23T01:40:09;5.47;;;3.10;;
23282;SDS011;11810;51.178;3.878;2023-03-23T01:42:37;3.90;;;2.50;;
23282;SDS011;11810;51.178;3.878;2023-03-23T01:47:48;3.75;;;2.70;;
23282;SDS011;11810;51.178;3.878;2023-03-23T01:50:19;6.05;;;2.75;;
23282;SDS011;11810;51.178;3.878;2023-03-23T01:52:49;3.85;;;2.53;;
23282;SDS011;11810;51.178;3.878;2023-03-23T01:55:20;5.40;;;3.08;;
23282;SDS011;11810;51.178;3.878;2023-03-23T01:57:47;5.60;;;2.38;;
23282;SDS011;11810;51.178;3.878;2023-03-23T02:00:14;4.10;;;2.35;;
23282;SDS011;11810;51.178;3.878;2023-03-23T02:02:42;3.42;;;2.63;;
23282;SDS011;11810;51.178;3.878;2023-03-23T02:05:12;5.50;;;2.60;;
23282;SDS011;11810;51.178;3.878;2023-03-23T02:07:40;3.92;;;2.30;;
23282;SDS011;11810;51.178;3.878;2023-03-23T02:10:07;4.85;;;2.47;;
23282;SDS011;11810;51.178;3.878;2023-03-23T02:12:34;3.08;;;2.28;;
23282;SDS011;11810;51.178;3.878;2023-03-23T02:15:00;6.18;;;2.28;;
23282;SDS011;11810;51.178;3.878;2023-03-23T02:34:20;5.07;;;2.00;;
23282;SDS011;11810;51.178;3.878;2023-03-23T02:36:59;4.13;;;1.77;;
23282;SDS011;11810;51.178;3.878;2023-03-23T02:39:29;5.63;;;1.77;;
23282;SDS011;11810;51.178;3.878;2023-03-23T02:42:04;5.55;;;1.80;;
23282;SDS011;11810;51.178;3.878;2023-03-23T02:44:33;6.82;;;1.48;;
23282;SDS011;11810;51.178;3.878;2023-03-23T02:47:04;8.35;;;1.58;;
23282;SDS011;11810;51.178;3.878;2023-03-23T02:49:34;10.13;;;2.33;;
23282;SDS011;11810;51.178;3.878;2023-03-23T02:52:10;9.15;;;2.55;;
23282;SDS011;11810;51.178;3.878;2023-03-23T02:54:43;7.65;;;1.75;;
23282;SDS011;11810;51.178;3.878;2023-03-23T02:57:12;9.15;;;1.95;;
23282;SDS011;11810;51.178;3.878;2023-03-23T02:59:39;7.35;;;2.17;;
23282;SDS011;11810;51.178;3.878;2023-03-23T03:04:48;4.15;;;1.80;;
23282;SDS011;11810;51.178;3.878;2023-03-23T03:07:43;8.10;;;2.15;;
23282;SDS011;11810;51.178;3.878;2023-03-23T03:10:32;7.63;;;1.98;;
23282;SDS011;11810;51.178;3.878;2023-03-23T03:16:04;5.18;;;2.10;;
23282;SDS011;11810;51.178;3.878;2023-03-23T03:18:45;7.07;;;1.85;;
23282;SDS011;11810;51.178;3.878;2023-03-23T03:23:45;8.05;;;1.67;;
23282;SDS011;11810;51.178;3.878;2023-03-23T03:26:14;8.10;;;2.10;;
23282;SDS011;11810;51.178;3.878;2023-03-23T03:28:42;6.00;;;1.90;;
23282;SDS011;11810;51.178;3.878;2023-03-23T03:31:12;10.32;;;2.00;;
23282;SDS011;11810;51.178;3.878;2023-03-23T03:33:42;11.23;;;2.00;;
23282;SDS011;11810;51.178;3.878;2023-03-23T03:36:13;9.90;;;2.28;;
23282;SDS011;11810;51.178;3.878;2023-03-23T03:38:49;9.10;;;2.05;;
23282;SDS011;11810;51.178;3.878;2023-03-23T03:41:16;7.72;;;2.10;;
23282;SDS011;11810;51.178;3.878;2023-03-23T03:43:43;8.18;;;2.22;;
23282;SDS011;11810;51.178;3.878;2023-03-23T03:46:09;9.35;;;2.13;;
23282;SDS011;11810;51.178;3.878;2023-03-23T03:48:35;5.55;;;1.88;;
23282;SDS011;11810;51.178;3.878;2023-03-23T03:51:01;7.80;;;2.30;;
23282;SDS011;11810;51.178;3.878;2023-03-23T03:53:27;4.85;;;1.83;;
23282;SDS011;11810;51.178;3.878;2023-03-23T03:55:54;6.45;;;2.35;;
23282;SDS011;11810;51.178;3.878;2023-03-23T03:58:25;9.75;;;2.42;;
23282;SDS011;11810;51.178;3.878;2023-03-23T04:00:57;9.35;;;2.70;;
23282;SDS011;11810;51.178;3.878;2023-03-23T04:03:24;10.20;;;2.67;;
23282;SDS011;11810;51.178;3.878;2023-03-23T04:05:52;7.68;;;2.88;;
23282;SDS011;11810;51.178;3.878;2023-03-23T04:08:20;6.53;;;2.90;;
23282;SDS011;11810;51.178;3.878;2023-03-23T04:10:48;7.82;;;2.63;;
23282;SDS011;11810;51.178;3.878;2023-03-23T04:13:14;10.63;;;3.22;;
23282;SDS011;11810;51.178;3.878;2023-03-23T04:15:40;13.23;;;2.92;;
23282;SDS011;11810;51.178;3.878;2023-03-23T04:18:06;11.90;;;3.58;;
23282;SDS011;11810;51.178;3.878;2023-03-23T04:20:33;10.75;;;3.10;;
23282;SDS011;11810;51.178;3.878;2023-03-23T04:22:59;7.22;;;2.22;;
23282;SDS011;11810;51.178;3.878;2023-03-23T04:25:27;6.32;;;2.10;;
23282;SDS011;11810;51.178;3.878;2023-03-23T04:27:53;9.93;;;2.72;;
23282;SDS011;11810;51.178;3.878;2023-03-23T04:30:20;8.57;;;2.42;;
23282;SDS011;11810;51.178;3.878;2023-03-23T04:32:48;6.63;;;2.42;;
23282;SDS011;11810;51.178;3.878;2023-03-23T04:35:20;11.35;;;2.65;;
23282;SDS011;11810;51.178;3.878;2023-03-23T04:37:49;9.07;;;2.40;;
23282;SDS011;11810;51.178;3.878;2023-03-23T04:40:16;11.02;;;2.58;;
23282;SDS011;11810;51.178;3.878;2023-03-23T04:42:42;13.63;;;2.45;;
23282;SDS011;11810;51.178;3.878;2023-03-23T04:45:13;10.85;;;2.38;;
23282;SDS011;11810;51.178;3.878;2023-03-23T04:47:41;8.32;;;2.13;;
23282;SDS011;11810;51.178;3.878;2023-03-23T04:50:15;8.80;;;2.45;;
23282;SDS011;11810;51.178;3.878;2023-03-23T04:52:42;9.65;;;2.53;;
23282;SDS011;11810;51.178;3.878;2023-03-23T04:55:10;13.27;;;2.95;;
23282;SDS011;11810;51.178;3.878;2023-03-23T04:57:37;11.75;;;3.25;;
23282;SDS011;11810;51.178;3.878;2023-03-23T05:00:04;10.02;;;2.63;;
23282;SDS011;11810;51.178;3.878;2023-03-23T05:02:37;12.27;;;3.33;;
23282;SDS011;11810;51.178;3.878;2023-03-23T05:05:07;14.50;;;3.30;;
23282;SDS011;11810;51.178;3.878;2023-03-23T05:07:36;14.30;;;3.72;;
23282;SDS011;11810;51.178;3.878;2023-03-23T05:10:03;8.82;;;2.78;;
23282;SDS011;11810;51.178;3.878;2023-03-23T05:12:30;16.42;;;3.30;;
23282;SDS011;11810;51.178;3.878;2023-03-23T05:14:57;13.68;;;3.20;;
23282;SDS011;11810;51.178;3.878;2023-03-23T05:17:23;10.77;;;3.13;;
23282;SDS011;11810;51.178;3.878;2023-03-23T05:19:50;13.23;;;3.35;;
23282;SDS011;11810;51.178;3.878;2023-03-23T05:22:17;11.10;;;3.17;;
23282;SDS011;11810;51.178;3.878;2023-03-23T05:24:46;13.43;;;2.67;;
23282;SDS011;11810;51.178;3.878;2023-03-23T05:27:13;12.02;;;2.78;;
23282;SDS011;11810;51.178;3.878;2023-03-23T05:29:40;8.93;;;2.50;;
23282;SDS011;11810;51.178;3.878;2023-03-23T05:32:06;10.20;;;2.38;;
23282;SDS011;11810;51.178;3.878;2023-03-23T05:34:36;11.30;;;2.67;;
23282;SDS011;11810;51.178;3.878;2023-03-23T05:37:02;18.42;;;2.67;;
23282;SDS011;11810;51.178;3.878;2023-03-23T05:39:29;11.80;;;2.90;;
23282;SDS011;11810;51.178;3.878;2023-03-23T05:41:56;17.33;;;3.40;;
23282;SDS011;11810;51.178;3.878;2023-03-23T05:44:22;17.08;;;3.55;;
23282;SDS011;11810;51.178;3.878;2023-03-23T05:46:48;12.93;;;3.45;;
23282;SDS011;11810;51.178;3.878;2023-03-23T05:49:14;13.00;;;3.55;;
23282;SDS011;11810;51.178;3.878;2023-03-23T05:51:42;14.73;;;3.20;;
23282;SDS011;11810;51.178;3.878;2023-03-23T05:54:09;10.02;;;2.85;;
23282;SDS011;11810;51.178;3.878;2023-03-23T05:56:36;17.30;;;3.50;;
23282;SDS011;11810;51.178;3.878;2023-03-23T05:59:02;12.45;;;3.08;;
23282;SDS011;11810;51.178;3.878;2023-03-23T06:01:28;10.27;;;2.75;;
23282;SDS011;11810;51.178;3.878;2023-03-23T06:03:54;10.38;;;2.50;;
23282;SDS011;11810;51.178;3.878;2023-03-23T06:06:27;13.73;;;3.00;;
23282;SDS011;11810;51.178;3.878;2023-03-23T06:08:54;7.63;;;2.85;;
23282;SDS011;11810;51.178;3.878;2023-03-23T06:11:22;12.32;;;3.72;;
23282;SDS011;11810;51.178;3.878;2023-03-23T06:13:49;11.85;;;3.80;;
23282;SDS011;11810;51.178;3.878;2023-03-23T06:16:15;13.32;;;3.63;;
23282;SDS011;11810;51.178;3.878;2023-03-23T06:18:41;12.43;;;3.97;;
23282;SDS011;11810;51.178;3.878;2023-03-23T06:21:08;10.52;;;3.60;;
23282;SDS011;11810;51.178;3.878;2023-03-23T06:23:36;5.68;;;2.53;;
23282;SDS011;11810;51.178;3.878;2023-03-23T06:26:05;8.35;;;2.70;;
23282;SDS011;11810;51.178;3.878;2023-03-23T06:28:33;10.60;;;2.60;;
23282;SDS011;11810;51.178;3.878;2023-03-23T06:31:03;5.90;;;3.13;;
23282;SDS011;11810;51.178;3.878;2023-03-23T06:33:32;10.73;;;2.78;;
23282;SDS011;11810;51.178;3.878;2023-03-23T06:35:59;11.50;;;3.20;;
23282;SDS011;11810;51.178;3.878;2023-03-23T06:38:25;6.97;;;2.85;;
23282;SDS011;11810;51.178;3.878;2023-03-23T06:40:52;12.02;;;2.50;;
23282;SDS011;11810;51.178;3.878;2023-03-23T06:43:19;9.55;;;2.95;;
23282;SDS011;11810;51.178;3.878;2023-03-23T06:45:45;9.32;;;3.20;;
23282;SDS011;11810;51.178;3.878;2023-03-23T06:48:12;7.95;;;2.80;;
23282;SDS011;11810;51.178;3.878;2023-03-23T06:50:38;6.82;;;2.25;;
23282;SDS011;11810;51.178;3.878;2023-03-23T06:53:07;7.30;;;1.60;;
23282;SDS011;11810;51.178;3.878;2023-03-23T06:55:33;7.28;;;1.92;;
23282;SDS011;11810;51.178;3.878;2023-03-23T06:57:59;7.25;;;2.13;;
23282;SDS011;11810;51.178;3.878;2023-03-23T07:00:26;9.63;;;2.47;;
23282;SDS011;11810;51.178;3.878;2023-03-23T07:02:52;6.35;;;1.85;;
23282;SDS011;11810;51.178;3.878;2023-03-23T07:05:18;10.95;;;2.67;;
23282;SDS011;11810;51.178;3.878;2023-03-23T07:07:44;9.57;;;1.98;;
23282;SDS011;11810;51.178;3.878;2023-03-23T07:10:10;11.40;;;2.10;;
23282;SDS011;11810;51.178;3.878;2023-03-23T07:12:36;6.05;;;1.85;;
23282;SDS011;11810;51.178;3.878;2023-03-23T07:15:03;9.05;;;2.42;;
23282;SDS011;11810;51.178;3.878;2023-03-23T07:17:30;9.68;;;2.58;;
23282;SDS011;11810;51.178;3.878;2023-03-23T07:19:56;5.10;;;1.73;;
23282;SDS011;11810;51.178;3.878;2023-03-23T07:22:22;10.50;;;2.42;;
23282;SDS011;11810;51.178;3.878;2023-03-23T07:24:48;6.55;;;1.90;;
23282;SDS011;11810;51.178;3.878;2023-03-23T07:27:14;10.55;;;1.75;;
23282;SDS011;11810;51.178;3.878;2023-03-23T07:29:40;9.27;;;2.25;;
23282;SDS011;11810;51.178;3.878;2023-03-23T07:32:08;9.55;;;2.38;;
23282;SDS011;11810;51.178;3.878;2023-03-23T07:34:37;7.32;;;2.20;;
23282;SDS011;11810;51.178;3.878;2023-03-23T07:37:03;6.95;;;2.30;;
23282;SDS011;11810;51.178;3.878;2023-03-23T07:39:30;12.13;;;2.95;;
23282;SDS011;11810;51.178;3.878;2023-03-23T07:41:56;8.20;;;1.88;;
23282;SDS011;11810;51.178;3.878;2023-03-23T07:44:22;6.72;;;1.73;;
23282;SDS011;11810;51.178;3.878;2023-03-23T07:46:48;9.98;;;2.08;;
23282;SDS011;11810;51.178;3.878;2023-03-23T07:49:15;11.73;;;2.00;;
23282;SDS011;11810;51.178;3.878;2023-03-23T07:51:42;11.77;;;2.40;;
23282;SDS011;11810;51.178;3.878;2023-03-23T07:54:09;5.65;;;2.17;;
23282;SDS011;11810;51.178;3.878;2023-03-23T07:56:35;6.75;;;2.00;;
23282;SDS011;11810;51.178;3.878;2023-03-23T07:59:05;10.82;;;2.63;;
23282;SDS011;11810;51.178;3.878;2023-03-23T08:01:32;9.75;;;2.05;;
23282;SDS011;11810;51.178;3.878;2023-03-23T08:03:58;9.60;;;2.17;;
23282;SDS011;11810;51.178;3.878;2023-03-23T08:06:25;8.25;;;2.20;;
23282;SDS011;11810;51.178;3.878;2023-03-23T08:08:52;8.93;;;2.08;;
23282;SDS011;11810;51.178;3.878;2023-03-23T08:11:19;9.75;;;2.55;;
23282;SDS011;11810;51.178;3.878;2023-03-23T08:13:45;9.50;;;2.30;;
23282;SDS011;11810;51.178;3.878;2023-03-23T08:16:11;10.68;;;2.50;;
23282;SDS011;11810;51.178;3.878;2023-03-23T08:18:38;11.85;;;2.35;;
23282;SDS011;11810;51.178;3.878;2023-03-23T08:21:05;7.60;;;1.83;;
23282;SDS011;11810;51.178;3.878;2023-03-23T08:23:35;9.15;;;2.13;;
23282;SDS011;11810;51.178;3.878;2023-03-23T08:26:02;9.00;;;2.33;;
23282;SDS011;11810;51.178;3.878;2023-03-23T08:28:31;7.88;;;1.98;;
23282;SDS011;11810;51.178;3.878;2023-03-23T08:30:57;9.52;;;2.00;;
23282;SDS011;11810;51.178;3.878;2023-03-23T08:33:24;10.25;;;2.13;;
23282;SDS011;11810;51.178;3.878;2023-03-23T08:35:56;7.15;;;2.20;;
23282;SDS011;11810;51.178;3.878;2023-03-23T08:38:24;9.20;;;1.70;;
23282;SDS011;11810;51.178;3.878;2023-03-23T08:40:50;11.13;;;2.58;;
23282;SDS011;11810;51.178;3.878;2023-03-23T08:43:17;7.93;;;2.38;;
23282;SDS011;11810;51.178;3.878;2023-03-23T08:45:43;8.15;;;2.53;;
23282;SDS011;11810;51.178;3.878;2023-03-23T08:48:09;9.85;;;2.13;;
23282;SDS011;11810;51.178;3.878;2023-03-23T08:50:36;11.25;;;2.55;;
23282;SDS011;11810;51.178;3.878;2023-03-23T08:53:02;15.15;;;3.20;;
23282;SDS011;11810;51.178;3.878;2023-03-23T08:55:28;11.27;;;2.70;;
23282;SDS011;11810;51.178;3.878;2023-03-23T08:57:54;10.85;;;3.33;;
23282;SDS011;11810;51.178;3.878;2023-03-23T09:00:21;14.13;;;3.47;;
23282;SDS011;11810;51.178;3.878;2023-03-23T09:02:50;13.80;;;2.80;;
23282;SDS011;11810;51.178;3.878;2023-03-23T09:05:20;13.32;;;3.75;;
23282;SDS011;11810;51.178;3.878;2023-03-23T09:07:50;12.75;;;2.80;;
23282;SDS011;11810;51.178;3.878;2023-03-23T09:10:17;15.10;;;3.50;;
23282;SDS011;11810;51.178;3.878;2023-03-23T09:12:44;10.57;;;2.80;;
23282;SDS011;11810;51.178;3.878;2023-03-23T09:15:12;14.73;;;2.95;;
23282;SDS011;11810;51.178;3.878;2023-03-23T09:17:40;10.32;;;2.70;;
23282;SDS011;11810;51.178;3.878;2023-03-23T09:20:08;10.90;;;2.13;;
23282;SDS011;11810;51.178;3.878;2023-03-23T09:22:37;9.85;;;2.58;;
23282;SDS011;11810;51.178;3.878;2023-03-23T09:25:05;12.85;;;2.67;;
23282;SDS011;11810;51.178;3.878;2023-03-23T09:27:32;14.65;;;2.55;;
23282;SDS011;11810;51.178;3.878;2023-03-23T09:29:58;13.57;;;2.63;;
23282;SDS011;11810;51.178;3.878;2023-03-23T09:32:26;7.55;;;2.00;;
23282;SDS011;11810;51.178;3.878;2023-03-23T09:34:52;9.57;;;2.35;;
23282;SDS011;11810;51.178;3.878;2023-03-23T09:37:21;13.07;;;2.05;;
23282;SDS011;11810;51.178;3.878;2023-03-23T09:39:47;9.55;;;1.95;;
23282;SDS011;11810;51.178;3.878;2023-03-23T09:42:20;6.93;;;1.90;;
23282;SDS011;11810;51.178;3.878;2023-03-23T09:51:07;5.35;;;1.80;;
23282;SDS011;11810;51.178;3.878;2023-03-23T09:53:38;9.38;;;1.67;;
23282;SDS011;11810;51.178;3.878;2023-03-23T09:56:11;5.93;;;1.92;;
23282;SDS011;11810;51.178;3.878;2023-03-23T09:58:43;6.40;;;1.80;;
23282;SDS011;11810;51.178;3.878;2023-03-23T10:01:26;9.35;;;2.00;;
23282;SDS011;11810;51.178;3.878;2023-03-23T10:04:07;6.90;;;1.55;;
23282;SDS011;11810;51.178;3.878;2023-03-23T10:06:59;6.28;;;1.75;;
23282;SDS011;11810;51.178;3.878;2023-03-23T10:09:39;8.55;;;1.73;;
23282;SDS011;11810;51.178;3.878;2023-03-23T10:17:45;5.97;;;1.75;;
23282;SDS011;11810;51.178;3.878;2023-03-23T10:21:04;3.60;;;1.67;;
23282;SDS011;11810;51.178;3.878;2023-03-23T10:26:06;10.13;;;2.15;;
23282;SDS011;11810;51.178;3.878;2023-03-23T10:29:26;6.88;;;2.15;;
23282;SDS011;11810;51.178;3.878;2023-03-23T10:36:55;10.32;;;2.13;;
23282;SDS011;11810;51.178;3.878;2023-03-23T10:39:29;8.75;;;1.75;;
23282;SDS011;11810;51.178;3.878;2023-03-23T10:42:00;7.97;;;2.35;;
23282;SDS011;11810;51.178;3.878;2023-03-23T10:44:32;12.77;;;2.28;;
23282;SDS011;11810;51.178;3.878;2023-03-23T10:47:00;12.68;;;2.50;;
23282;SDS011;11810;51.178;3.878;2023-03-23T10:52:05;10.85;;;2.40;;
23282;SDS011;11810;51.178;3.878;2023-03-23T10:55:00;6.43;;;1.88;;
23282;SDS011;11810;51.178;3.878;2023-03-23T10:58:04;8.35;;;2.22;;
23282;SDS011;11810;51.178;3.878;2023-03-23T11:00:30;8.50;;;2.05;;
23282;SDS011;11810;51.178;3.878;2023-03-23T11:05:55;13.13;;;2.78;;
23282;SDS011;11810;51.178;3.878;2023-03-23T11:08:28;9.27;;;2.63;;
23282;SDS011;11810;51.178;3.878;2023-03-23T11:13:38;7.80;;;2.03;;
23282;SDS011;11810;51.178;3.878;2023-03-23T11:16:08;9.82;;;2.50;;
23282;SDS011;11810;51.178;3.878;2023-03-23T11:18:40;12.68;;;2.70;;
23282;SDS011;11810;51.178;3.878;2023-03-23T11:23:38;10.20;;;2.63;;
23282;SDS011;11810;51.178;3.878;2023-03-23T11:31:35;5.78;;;1.80;;
23282;SDS011;11810;51.178;3.878;2023-03-23T11:34:09;6.85;;;1.70;;
23282;SDS011;11810;51.178;3.878;2023-03-23T11:36:41;10.45;;;2.53;;
23282;SDS011;11810;51.178;3.878;2023-03-23T11:42:00;7.35;;;2.22;;
23282;SDS011;11810;51.178;3.878;2023-03-23T11:44:45;8.65;;;1.92;;
23282;SDS011;11810;51.178;3.878;2023-03-23T11:58:11;13.40;;;2.45;;
23282;SDS011;11810;51.178;3.878;2023-03-23T12:00:41;11.25;;;2.30;;
23282;SDS011;11810;51.178;3.878;2023-03-23T12:03:20;10.38;;;2.50;;
23282;SDS011;11810;51.178;3.878;2023-03-23T12:05:51;10.55;;;2.45;;
23282;SDS011;11810;51.178;3.878;2023-03-23T12:33:49;15.50;;;4.88;;
23282;SDS011;11810;51.178;3.878;2023-03-23T12:36:29;16.15;;;4.45;;
23282;SDS011;11810;51.178;3.878;2023-03-23T12:39:04;20.75;;;4.57;;
23282;SDS011;11810;51.178;3.878;2023-03-23T12:44:47;10.80;;;3.28;;
23282;SDS011;11810;51.178;3.878;2023-03-23T12:50:37;10.82;;;3.40;;
23282;SDS011;11810;51.178;3.878;2023-03-23T12:56:22;13.23;;;2.85;;
23282;SDS011;11810;51.178;3.878;2023-03-23T12:59:15;13.70;;;3.25;;
23282;SDS011;11810;51.178;3.878;2023-03-23T13:02:14;12.23;;;2.70;;
23282;SDS011;11810;51.178;3.878;2023-03-23T13:05:03;11.88;;;2.58;;
23282;SDS011;11810;51.178;3.878;2023-03-23T13:08:10;12.27;;;3.00;;
23282;SDS011;11810;51.178;3.878;2023-03-23T13:10:47;14.57;;;3.15;;
23282;SDS011;11810;51.178;3.878;2023-03-23T13:13:23;9.60;;;2.78;;
23282;SDS011;11810;51.178;3.878;2023-03-23T13:24:01;12.88;;;3.30;;
23282;SDS011;11810;51.178;3.878;2023-03-23T13:26:30;16.02;;;3.60;;
23282;SDS011;11810;51.178;3.878;2023-03-23T13:28:57;11.65;;;2.90;;
23282;SDS011;11810;51.178;3.878;2023-03-23T13:31:35;13.68;;;2.33;;
23282;SDS011;11810;51.178;3.878;2023-03-23T13:36:38;14.95;;;3.60;;
23282;SDS011;11810;51.178;3.878;2023-03-23T13:39:16;15.02;;;3.42;;
23282;SDS011;11810;51.178;3.878;2023-03-23T13:41:59;14.15;;;3.33;;
23282;SDS011;11810;51.178;3.878;2023-03-23T13:44:39;11.32;;;3.33;;
23282;SDS011;11810;51.178;3.878;2023-03-23T13:49:53;18.58;;;3.65;;
23282;SDS011;11810;51.178;3.878;2023-03-23T13:52:23;14.65;;;3.15;;
23282;SDS011;11810;51.178;3.878;2023-03-23T13:57:49;16.55;;;3.97;;
23282;SDS011;11810;51.178;3.878;2023-03-23T14:03:09;13.38;;;3.53;;
23282;SDS011;11810;51.178;3.878;2023-03-23T14:13:10;13.20;;;2.67;;
23282;SDS011;11810;51.178;3.878;2023-03-23T14:15:56;14.82;;;3.45;;
23282;SDS011;11810;51.178;3.878;2023-03-23T14:18:31;10.48;;;2.50;;
23282;SDS011;11810;51.178;3.878;2023-03-23T14:21:01;13.65;;;2.55;;
23282;SDS011;11810;51.178;3.878;2023-03-23T14:23:30;9.93;;;2.55;;
23282;SDS011;11810;51.178;3.878;2023-03-23T14:26:05;14.73;;;3.40;;
23282;SDS011;11810;51.178;3.878;2023-03-23T14:28:38;13.95;;;3.00;;
23282;SDS011;11810;51.178;3.878;2023-03-23T14:31:39;13.85;;;3.03;;
23282;SDS011;11810;51.178;3.878;2023-03-23T14:34:02;10.10;;;2.30;;
23282;SDS011;11810;51.178;3.878;2023-03-23T14:36:31;11.75;;;2.42;;
23282;SDS011;11810;51.178;3.878;2023-03-23T14:41:32;11.48;;;2.50;;
23282;SDS011;11810;51.178;3.878;2023-03-23T14:44:00;10.00;;;2.55;;
23282;SDS011;11810;51.178;3.878;2023-03-23T14:46:29;9.77;;;2.10;;
23282;SDS011;11810;51.178;3.878;2023-03-23T14:48:56;11.50;;;2.30;;
23282;SDS011;11810;51.178;3.878;2023-03-23T14:51:25;10.05;;;2.47;;
23282;SDS011;11810;51.178;3.878;2023-03-23T14:53:52;8.95;;;2.30;;
23282;SDS011;11810;51.178;3.878;2023-03-23T14:56:19;12.05;;;2.47;;
23282;SDS011;11810;51.178;3.878;2023-03-23T14:58:51;7.88;;;2.15;;
23282;SDS011;11810;51.178;3.878;2023-03-23T15:01:18;9.52;;;2.33;;
23282;SDS011;11810;51.178;3.878;2023-03-23T15:03:59;9.93;;;1.98;;
23282;SDS011;11810;51.178;3.878;2023-03-23T15:06:32;9.48;;;2.58;;
23282;SDS011;11810;51.178;3.878;2023-03-23T15:09:02;8.45;;;2.30;;
23282;SDS011;11810;51.178;3.878;2023-03-23T15:11:32;10.77;;;2.20;;
23282;SDS011;11810;51.178;3.878;2023-03-23T15:16:44;10.98;;;2.38;;
23282;SDS011;11810;51.178;3.878;2023-03-23T15:19:22;12.27;;;2.67;;
23282;SDS011;11810;51.178;3.878;2023-03-23T15:24:18;11.45;;;2.72;;
23282;SDS011;11810;51.178;3.878;2023-03-23T15:26:52;10.57;;;2.78;;
23282;SDS011;11810;51.178;3.878;2023-03-23T15:29:22;14.13;;;3.17;;
23282;SDS011;11810;51.178;3.878;2023-03-23T15:31:52;15.45;;;3.42;;
23282;SDS011;11810;51.178;3.878;2023-03-23T15:36:54;13.70;;;3.08;;
23282;SDS011;11810;51.178;3.878;2023-03-23T15:39:22;12.98;;;3.42;;
23282;SDS011;11810;51.178;3.878;2023-03-23T15:41:50;8.90;;;2.53;;
23282;SDS011;11810;51.178;3.878;2023-03-23T15:44:25;13.90;;;3.08;;
23282;SDS011;11810;51.178;3.878;2023-03-23T15:47:17;13.30;;;3.40;;
23282;SDS011;11810;51.178;3.878;2023-03-23T15:49:45;15.50;;;3.65;;
23282;SDS011;11810;51.178;3.878;2023-03-23T15:52:12;12.27;;;2.97;;
23282;SDS011;11810;51.178;3.878;2023-03-23T15:54:45;16.45;;;3.42;;
23282;SDS011;11810;51.178;3.878;2023-03-23T15:57:12;14.45;;;2.75;;
23282;SDS011;11810;51.178;3.878;2023-03-23T15:59:38;11.88;;;3.28;;
23282;SDS011;11810;51.178;3.878;2023-03-23T16:02:04;12.93;;;2.83;;
23282;SDS011;11810;51.178;3.878;2023-03-23T16:04:30;15.10;;;3.78;;
23282;SDS011;11810;51.178;3.878;2023-03-23T16:06:57;12.93;;;3.17;;
23282;SDS011;11810;51.178;3.878;2023-03-23T16:09:25;16.65;;;3.75;;
23282;SDS011;11810;51.178;3.878;2023-03-23T16:11:50;16.45;;;3.75;;
23282;SDS011;11810;51.178;3.878;2023-03-23T16:14:16;12.70;;;3.40;;
23282;SDS011;11810;51.178;3.878;2023-03-23T16:16:46;14.07;;;3.33;;
23282;SDS011;11810;51.178;3.878;2023-03-23T16:19:14;12.80;;;3.10;;
23282;SDS011;11810;51.178;3.878;2023-03-23T16:21:41;17.08;;;3.35;;
23282;SDS011;11810;51.178;3.878;2023-03-23T16:24:07;16.38;;;3.58;;
23282;SDS011;11810;51.178;3.878;2023-03-23T16:26:34;16.88;;;3.90;;
23282;SDS011;11810;51.178;3.878;2023-03-23T16:29:01;13.18;;;4.15;;
23282;SDS011;11810;51.178;3.878;2023-03-23T16:31:27;18.75;;;3.83;;
23282;SDS011;11810;51.178;3.878;2023-03-23T16:33:53;12.13;;;2.92;;
23282;SDS011;11810;51.178;3.878;2023-03-23T16:36:20;18.67;;;4.38;;
23282;SDS011;11810;51.178;3.878;2023-03-23T16:38:45;16.95;;;3.80;;
23282;SDS011;11810;51.178;3.878;2023-03-23T16:41:11;17.73;;;4.07;;
23282;SDS011;11810;51.178;3.878;2023-03-23T16:43:37;16.70;;;3.80;;
23282;SDS011;11810;51.178;3.878;2023-03-23T16:46:03;15.73;;;4.43;;
23282;SDS011;11810;51.178;3.878;2023-03-23T16:48:30;14.43;;;3.60;;
23282;SDS011;11810;51.178;3.878;2023-03-23T16:50:56;14.50;;;3.30;;
23282;SDS011;11810;51.178;3.878;2023-03-23T16:53:22;14.27;;;3.30;;
23282;SDS011;11810;51.178;3.878;2023-03-23T16:55:50;11.43;;;3.13;;
23282;SDS011;11810;51.178;3.878;2023-03-23T16:58:16;11.90;;;2.55;;
23282;SDS011;11810;51.178;3.878;2023-03-23T17:00:43;15.43;;;3.38;;
23282;SDS011;11810;51.178;3.878;2023-03-23T17:03:11;14.75;;;2.47;;
23282;SDS011;11810;51.178;3.878;2023-03-23T17:05:37;13.38;;;3.00;;
23282;SDS011;11810;51.178;3.878;2023-03-23T17:08:03;14.70;;;3.03;;
23282;SDS011;11810;51.178;3.878;2023-03-23T17:10:30;9.45;;;3.08;;
23282;SDS011;11810;51.178;3.878;2023-03-23T17:12:56;15.27;;;3.33;;
23282;SDS011;11810;51.178;3.878;2023-03-23T17:15:22;10.43;;;2.83;;
23282;SDS011;11810;51.178;3.878;2023-03-23T17:17:49;13.43;;;3.15;;
23282;SDS011;11810;51.178;3.878;2023-03-23T17:20:16;10.20;;;3.05;;
23282;SDS011;11810;51.178;3.878;2023-03-23T17:22:42;13.75;;;3.17;;
23282;SDS011;11810;51.178;3.878;2023-03-23T17:25:08;24.08;;;4.10;;